Terminal Aerodrome Forecast
Issued by NWS Wilmington, NC

Home | Current Version | Previous Version | Text Only | Print | Product List | Glossary On
Versions: 1 2 3 4 5 6 7 8 9 10 11 12 13 14 15 16
000
FTUS42 KILM 020537
TAFMYR
TAF
KMYR 020537Z 0206/0306 VRB03KT P6SM SCT020 SCT080
     FM021200 05008KT P6SM SCT080
     FM021800 15010KT P6SM SCT050
      TEMPO 0220/0224 P6SM -SHRA BKN050
     FM030000 17009KT P6SM SKC
      AMD LTD TO CLD VIS AND WIND TIL 021100=

USA.gov is the U.S. government's official web portal to all federal, state and local government web resources and services.